Time;durP1;ratioP1;P1;durP2;ratioP2;P2;SDS_P1;SDS_P2;PMS_P1;PMS_P2;Temp;Humidity;BMP_temperature;BMP_pressure;BME280_temperature;BME280_humidity;BME280_pressure;Samples;Min_cycle;Max_cycle;Signal;HPM_P1;HPM_P2
2023/06/18 00:02:05;;;;;;;23.52;13.48;;;21.80;99.90;;;;;;4950096;29;20423;-74
2023/06/18 00:04:31;;;;;;;21.60;13.65;;;21.80;99.90;;;;;;4948321;29;20126;-76
2023/06/18 00:06:57;;;;;;;22.63;13.27;;;21.80;99.90;;;;;;4954617;29;20027;-76
2023/06/18 00:09:23;;;;;;;24.17;13.27;;;21.80;99.90;;;;;;4948552;29;20110;-77
2023/06/18 00:11:49;;;;;;;27.42;13.02;;;21.80;99.90;;;;;;4947831;29;20027;-77
2023/06/18 00:14:16;;;;;;;23.75;12.82;;;21.80;99.90;;;;;;4946125;29;20028;-76
2023/06/18 00:16:42;;;;;;;24.20;13.90;;;21.80;99.90;;;;;;4949084;29;20043;-77
2023/06/18 00:19:07;;;;;;;23.70;13.68;;;21.80;99.90;;;;;;4948294;29;20035;-78
2023/06/18 00:21:33;;;;;;;26.17;14.70;;;21.70;99.90;;;;;;4950882;28;20082;-77
2023/06/18 00:23:58;;;;;;;23.23;14.07;;;21.70;99.90;;;;;;4953002;28;20035;-77
2023/06/18 00:26:25;;;;;;;25.27;15.05;;;21.70;99.90;;;;;;4946808;29;20472;-77
2023/06/18 00:28:51;;;;;;;24.20;13.75;;;21.60;99.90;;;;;;4953088;29;20029;-77
2023/06/18 00:31:17;;;;;;;24.90;14.82;;;21.60;99.90;;;;;;4945374;29;20066;-76
2023/06/18 00:33:44;;;;;;;25.60;16.55;;;21.60;99.90;;;;;;4949835;29;20463;-77
2023/06/18 00:36:09;;;;;;;23.15;13.48;;;21.60;99.90;;;;;;4950539;29;20024;-77
2023/06/18 00:38:37;;;;;;;27.38;14.95;;;21.60;99.90;;;;;;4939988;29;20100;-77
2023/06/18 00:41:02;;;;;;;23.27;13.75;;;21.50;99.90;;;;;;4950584;29;20038;-76
2023/06/18 00:43:28;;;;;;;25.42;13.85;;;21.50;99.90;;;;;;4946689;29;20092;-76
2023/06/18 00:45:59;;;;;;;25.33;13.88;;;21.50;99.90;;;;;;4947059;28;20032;-76
2023/06/18 00:48:28;;;;;;;25.30;14.65;;;21.40;99.90;;;;;;4954015;29;20032;-77
2023/06/18 00:50:53;;;;;;;24.67;13.98;;;21.40;99.90;;;;;;4949165;28;20554;-76
2023/06/18 00:53:20;;;;;;;26.80;14.45;;;21.40;99.90;;;;;;4965786;28;20113;-76
2023/06/18 00:55:47;;;;;;;25.02;13.25;;;21.30;99.90;;;;;;4957353;28;20035;-76
2023/06/18 00:58:13;;;;;;;24.67;13.38;;;21.30;99.90;;;;;;4942210;29;20055;-77
2023/06/18 01:00:40;;;;;;;27.35;15.13;;;21.20;99.90;;;;;;4948599;29;20380;-77
2023/06/18 01:03:16;;;;;;;24.05;14.32;;;21.20;99.90;;;;;;4948396;28;20065;-76
2023/06/18 01:05:47;;;;;;;21.05;13.40;;;21.20;99.90;;;;;;4950436;29;20054;-77
2023/06/18 01:08:13;;;;;;;25.77;14.68;;;21.10;99.90;;;;;;4956959;28;20031;-77
2023/06/18 01:10:40;;;;;;;22.65;14.07;;;21.10;99.90;;;;;;4950808;28;20480;-76
2023/06/18 01:13:13;;;;;;;22.98;13.52;;;21.00;99.90;;;;;;4946910;29;20039;-77
2023/06/18 01:15:38;;;;;;;20.58;12.05;;;21.00;99.90;;;;;;4949615;29;20058;-76
2023/06/18 01:18:06;;;;;;;22.52;13.30;;;21.00;99.90;;;;;;4940127;29;20051;-77
2023/06/18 01:20:40;;;;;;;24.80;13.48;;;21.00;99.90;;;;;;4941996;29;20028;-77
2023/06/18 01:23:14;;;;;;;22.70;13.00;;;20.90;99.90;;;;;;4963284;28;20105;-76
2023/06/18 01:25:42;;;;;;;21.58;12.68;;;20.90;99.90;;;;;;4944916;29;20110;-76
2023/06/18 01:28:08;;;;;;;24.23;13.23;;;20.90;99.90;;;;;;4949675;29;20024;-76
2023/06/18 01:30:37;;;;;;;23.23;12.75;;;20.90;99.90;;;;;;4947519;29;20027;-76
2023/06/18 01:33:03;;;;;;;21.70;12.70;;;20.80;99.90;;;;;;4948596;29;20475;-77
2023/06/18 01:35:29;;;;;;;22.83;11.75;;;20.80;99.90;;;;;;4940372;29;20068;-77
2023/06/18 01:38:18;;;;;;;19.30;11.48;;;20.70;99.90;;;;;;4950148;29;20035;-77
2023/06/18 01:40:58;;;;;;;21.83;11.60;;;20.70;99.90;;;;;;4948849;29;20037;-76
2023/06/18 01:43:34;;;;;;;20.55;11.85;;;20.70;99.90;;;;;;4953478;29;20053;-77
2023/06/18 01:46:07;;;;;;;20.10;11.45;;;20.70;99.90;;;;;;4951798;29;20110;-79
2023/06/18 01:48:59;;;;;;;22.58;11.80;;;20.70;99.90;;;;;;4941211;29;20031;-77
2023/06/18 01:51:27;;;;;;;20.80;11.63;;;20.60;99.90;;;;;;4946669;29;20039;-78
2023/06/18 01:53:55;;;;;;;21.80;11.98;;;20.60;99.90;;;;;;4937792;29;20758;-77
2023/06/18 01:56:23;;;;;;;21.10;12.93;;;20.50;99.90;;;;;;4949321;29;20413;-76
2023/06/18 01:58:50;;;;;;;21.70;12.23;;;20.60;99.90;;;;;;4942616;29;20035;-76
2023/06/18 02:01:15;;;;;;;19.98;11.80;;;20.60;99.90;;;;;;4952689;29;20031;-76
2023/06/18 02:03:41;;;;;;;23.08;11.70;;;20.50;99.90;;;;;;4951295;28;20047;-76
2023/06/18 02:06:07;;;;;;;21.65;13.43;;;20.50;99.90;;;;;;4937835;28;20073;-77
2023/06/18 02:08:33;;;;;;;19.85;11.93;;;20.50;99.90;;;;;;4961012;28;20027;-76
2023/06/18 02:10:59;;;;;;;20.67;11.85;;;20.50;99.90;;;;;;4956768;28;20038;-76
2023/06/18 02:13:24;;;;;;;21.83;11.85;;;20.50;99.90;;;;;;4950634;29;20391;-76
2023/06/18 02:15:50;;;;;;;21.80;11.73;;;20.40;99.90;;;;;;4952162;29;20042;-77
2023/06/18 02:18:15;;;;;;;24.02;12.77;;;20.40;99.90;;;;;;4944040;29;20050;-75
2023/06/18 02:20:42;;;;;;;19.67;12.15;;;20.40;99.90;;;;;;4952947;29;20046;-78
2023/06/18 02:23:08;;;;;;;22.60;12.43;;;20.40;99.90;;;;;;4963046;28;20039;-77
2023/06/18 02:25:35;;;;;;;22.80;12.57;;;20.40;99.90;;;;;;4948498;29;20035;-76
2023/06/18 02:28:06;;;;;;;20.77;11.73;;;20.40;99.90;;;;;;4946488;29;20118;-78
2023/06/18 02:30:32;;;;;;;24.30;13.07;;;20.30;99.90;;;;;;4940056;29;20050;-77
2023/06/18 02:32:58;;;;;;;24.02;11.90;;;20.30;99.90;;;;;;4943080;29;20027;-78
2023/06/18 02:35:25;;;;;;;20.90;11.82;;;20.30;99.90;;;;;;4952558;29;20478;-77
2023/06/18 02:37:51;;;;;;;23.80;11.15;;;20.30;99.90;;;;;;4945692;29;20539;-77
2023/06/18 02:40:17;;;;;;;19.65;11.80;;;20.30;99.90;;;;;;4947824;29;20167;-77
2023/06/18 02:42:50;;;;;;;19.67;10.85;;;20.30;99.90;;;;;;4947410;29;20055;-76
2023/06/18 02:45:20;;;;;;;22.02;12.07;;;20.30;99.90;;;;;;4952816;29;20048;-77
2023/06/18 02:47:47;;;;;;;19.58;10.88;;;20.20;99.90;;;;;;4952561;29;20539;-77
2023/06/18 02:50:13;;;;;;;19.63;11.60;;;20.20;99.90;;;;;;4952401;29;20043;-77
2023/06/18 02:52:40;;;;;;;20.10;11.05;;;20.20;99.90;;;;;;4935327;29;20575;-76
2023/06/18 02:55:07;;;;;;;20.20;10.13;;;20.20;99.90;;;;;;4953033;28;20468;-77
2023/06/18 02:57:34;;;;;;;19.50;10.25;;;20.20;99.90;;;;;;4952736;29;20067;-77
2023/06/18 03:00:00;;;;;;;16.25;10.23;;;20.20;99.90;;;;;;4951224;29;20062;-76
2023/06/18 03:02:26;;;;;;;16.95;8.65;;;20.20;99.90;;;;;;4952545;29;20463;-78
2023/06/18 03:04:52;;;;;;;19.52;9.88;;;20.20;99.90;;;;;;4946235;29;20428;-77
2023/06/18 03:07:17;;;;;;;19.55;9.98;;;20.20;99.90;;;;;;4955200;28;20106;-77
2023/06/18 03:09:43;;;;;;;17.75;9.45;;;20.20;99.90;;;;;;4941637;28;20035;-78
2023/06/18 03:12:11;;;;;;;15.80;9.52;;;20.20;99.90;;;;;;4952108;29;20023;-77
2023/06/18 03:14:37;;;;;;;15.73;9.13;;;20.20;99.90;;;;;;4952915;29;20445;-77
2023/06/18 03:17:03;;;;;;;18.67;9.68;;;20.20;99.90;;;;;;4951908;29;20063;-77
2023/06/18 03:19:29;;;;;;;16.58;9.70;;;20.10;99.90;;;;;;4952582;29;20514;-77
2023/06/18 03:21:55;;;;;;;19.33;10.07;;;20.10;99.90;;;;;;4952663;29;20518;-77
2023/06/18 03:24:20;;;;;;;19.70;9.75;;;20.10;99.90;;;;;;4934918;29;20031;-77
2023/06/18 03:26:46;;;;;;;18.08;9.18;;;20.10;99.90;;;;;;4954074;28;20027;-77
2023/06/18 03:29:11;;;;;;;19.50;9.40;;;20.10;99.90;;;;;;4955427;28;20119;-77
2023/06/18 03:31:39;;;;;;;18.73;9.13;;;20.10;99.90;;;;;;4938359;29;20475;-77
2023/06/18 03:34:06;;;;;;;16.83;8.63;;;20.10;99.90;;;;;;4955372;29;20035;-77
2023/06/18 03:36:50;;;;;;;18.67;8.98;;;20.10;99.90;;;;;;4955587;29;20023;-77
2023/06/18 03:39:16;;;;;;;16.48;9.13;;;20.10;99.90;;;;;;4955040;29;20027;-78
2023/06/18 03:41:42;;;;;;;13.75;8.52;;;20.10;99.90;;;;;;4938063;29;20027;-77
2023/06/18 03:44:08;;;;;;;18.00;9.07;;;20.10;99.90;;;;;;4934538;29;20055;-76
2023/06/18 03:46:34;;;;;;;15.40;8.90;;;20.10;99.90;;;;;;4945486;29;20431;-76
2023/06/18 03:49:00;;;;;;;13.60;8.13;;;20.10;99.90;;;;;;4946916;29;20031;-77
2023/06/18 03:51:26;;;;;;;15.20;7.55;;;20.00;99.90;;;;;;4955062;28;20019;-76
2023/06/18 03:53:52;;;;;;;17.13;8.02;;;20.10;99.90;;;;;;4957329;28;20154;-78
2023/06/18 03:56:19;;;;;;;15.38;8.30;;;20.10;99.90;;;;;;4951212;29;20027;-77
2023/06/18 03:58:46;;;;;;;14.57;7.97;;;20.10;99.90;;;;;;4953078;29;20380;-76
2023/06/18 04:01:11;;;;;;;11.68;7.03;;;20.20;99.90;;;;;;4939340;29;20385;-77
2023/06/18 04:03:39;;;;;;;12.63;7.05;;;20.20;99.90;;;;;;4934873;29;20028;-77
2023/06/18 04:06:05;;;;;;;17.27;7.32;;;20.30;99.90;;;;;;4945667;28;20055;-77
2023/06/18 04:08:31;;;;;;;13.73;6.75;;;20.40;99.90;;;;;;4955711;28;20483;-77
2023/06/18 04:10:57;;;;;;;16.33;7.40;;;20.40;99.90;;;;;;4952280;28;20019;-78
2023/06/18 04:13:22;;;;;;;14.18;7.47;;;20.40;99.90;;;;;;4945734;29;20035;-78
2023/06/18 04:15:49;;;;;;;11.00;6.80;;;20.50;99.90;;;;;;4950244;29;20035;-77
2023/06/18 04:18:14;;;;;;;14.35;7.13;;;20.50;99.90;;;;;;4947060;29;20519;-77
2023/06/18 04:20:40;;;;;;;12.93;7.50;;;20.60;99.90;;;;;;4944683;29;20106;-77
2023/06/18 04:23:06;;;;;;;13.43;6.80;;;20.60;99.90;;;;;;4942063;29;20484;-78
2023/06/18 04:25:32;;;;;;;11.63;6.22;;;20.70;99.90;;;;;;4948216;29;20046;-77
2023/06/18 04:27:58;;;;;;;14.10;7.22;;;20.70;99.90;;;;;;4945011;29;20044;-77
2023/06/18 04:30:24;;;;;;;15.05;6.07;;;20.70;99.90;;;;;;4945635;29;20031;-78
2023/06/18 04:32:50;;;;;;;9.90;6.20;;;20.80;99.90;;;;;;4947706;29;20035;-77
2023/06/18 04:35:16;;;;;;;12.65;6.18;;;20.80;99.90;;;;;;4948945;29;20087;-78
2023/06/18 04:37:41;;;;;;;12.88;6.45;;;20.90;99.90;;;;;;4953464;28;20058;-77
2023/06/18 04:40:08;;;;;;;13.00;6.55;;;20.90;99.90;;;;;;4934851;29;20049;-77
2023/06/18 04:42:35;;;;;;;13.27;6.10;;;20.90;99.90;;;;;;4952336;29;20070;-77
2023/06/18 04:45:01;;;;;;;10.13;5.85;;;21.00;99.90;;;;;;4941755;29;20464;-78
2023/06/18 04:47:26;;;;;;;11.93;6.13;;;21.10;99.90;;;;;;4948573;29;20027;-77
2023/06/18 04:49:52;;;;;;;11.50;5.80;;;21.10;99.90;;;;;;4953422;29;20090;-77
2023/06/18 04:52:17;;;;;;;16.70;6.72;;;21.20;99.90;;;;;;4957920;28;20349;-77
2023/06/18 04:54:44;;;;;;;11.32;6.35;;;21.40;99.90;;;;;;4939773;29;20039;-78
2023/06/18 04:57:10;;;;;;;13.02;5.95;;;21.50;99.90;;;;;;4951984;29;20061;-78
2023/06/18 04:59:39;;;;;;;10.73;5.80;;;21.60;99.90;;;;;;4941469;29;20071;-76
2023/06/18 05:02:06;;;;;;;11.07;5.72;;;21.80;99.90;;;;;;4944097;29;20042;-77
2023/06/18 05:04:32;;;;;;;14.88;6.30;;;21.90;99.90;;;;;;4944274;29;20442;-77
2023/06/18 05:06:58;;;;;;;9.02;4.93;;;22.00;99.90;;;;;;4946984;29;20027;-78
2023/06/18 05:09:25;;;;;;;12.55;6.40;;;22.10;99.90;;;;;;4948767;29;20028;-77
2023/06/18 05:11:51;;;;;;;11.23;5.85;;;22.20;99.80;;;;;;4944635;29;20028;-78
2023/06/18 05:14:16;;;;;;;12.85;6.38;;;22.20;99.50;;;;;;4944882;29;20031;-77
2023/06/18 05:16:42;;;;;;;11.10;5.78;;;22.30;99.30;;;;;;4944248;29;20046;-77
2023/06/18 05:19:07;;;;;;;10.90;5.22;;;22.40;99.20;;;;;;4949669;29;20028;-77
2023/06/18 05:21:33;;;;;;;14.18;6.57;;;22.50;98.80;;;;;;4950869;28;20399;-77
2023/06/18 05:23:58;;;;;;;11.18;5.80;;;22.70;98.50;;;;;;4959109;28;20378;-77
2023/06/18 05:26:25;;;;;;;11.57;6.40;;;22.90;98.10;;;;;;4951631;29;20070;-78
2023/06/18 05:28:51;;;;;;;11.85;6.13;;;23.20;98.10;;;;;;4947441;29;20115;-76
2023/06/18 05:31:16;;;;;;;11.73;5.18;;;23.60;97.60;;;;;;4947865;29;20102;-76
2023/06/18 05:33:42;;;;;;;10.93;5.97;;;23.90;96.70;;;;;;4947292;29;20471;-76
2023/06/18 05:36:07;;;;;;;11.20;6.53;;;24.10;96.30;;;;;;4946077;29;20540;-77
2023/06/18 05:38:33;;;;;;;14.98;6.85;;;24.20;96.10;;;;;;4944079;29;20043;-76
2023/06/18 05:40:58;;;;;;;12.75;6.68;;;24.20;95.90;;;;;;4952686;29;20452;-76
2023/06/18 05:43:24;;;;;;;11.55;6.25;;;24.10;95.90;;;;;;4946885;29;20074;-76
2023/06/18 05:45:50;;;;;;;11.43;6.28;;;24.10;95.70;;;;;;4950153;29;20083;-76
2023/06/18 05:48:16;;;;;;;12.98;6.57;;;24.20;95.60;;;;;;4943992;28;20038;-76
2023/06/18 05:50:42;;;;;;;11.68;6.07;;;24.30;95.50;;;;;;4945265;29;20079;-76
2023/06/18 05:53:07;;;;;;;16.58;6.07;;;24.30;95.60;;;;;;4959922;28;20039;-78
2023/06/18 05:55:33;;;;;;;10.75;6.00;;;24.50;95.50;;;;;;4958054;28;20089;-77
2023/06/18 05:57:59;;;;;;;13.45;6.35;;;25.10;95.20;;;;;;4951087;29;20476;-78
2023/06/18 06:00:25;;;;;;;14.65;6.20;;;26.10;94.00;;;;;;4943634;29;20035;-78
2023/06/18 06:02:51;;;;;;;12.57;6.25;;;27.20;92.60;;;;;;4953890;28;20038;-77
2023/06/18 06:05:17;;;;;;;10.60;6.15;;;28.30;91.00;;;;;;4949556;29;20102;-77
2023/06/18 06:07:42;;;;;;;14.07;6.47;;;29.10;89.50;;;;;;4945365;29;20035;-77
2023/06/18 06:10:09;;;;;;;13.20;6.60;;;29.60;87.20;;;;;;4943552;29;20035;-76
2023/06/18 06:12:35;;;;;;;14.35;6.43;;;30.00;86.40;;;;;;4943546;29;20435;-76
2023/06/18 06:15:00;;;;;;;13.02;6.47;;;30.10;84.90;;;;;;4950154;29;20027;-77
2023/06/18 06:17:26;;;;;;;12.95;6.70;;;30.00;85.30;;;;;;4947724;29;20371;-76
2023/06/18 06:19:52;;;;;;;13.90;6.45;;;29.90;85.10;;;;;;4946201;29;20027;-77
2023/06/18 06:22:17;;;;;;;9.70;6.47;;;30.00;85.10;;;;;;4951313;28;20033;-77
2023/06/18 06:24:43;;;;;;;12.75;6.15;;;30.20;83.80;;;;;;4954286;28;20033;-76
2023/06/18 06:27:08;;;;;;;13.57;6.65;;;30.40;84.00;;;;;;4947139;29;20047;-77
2023/06/18 06:29:34;;;;;;;8.95;5.93;;;30.90;82.90;;;;;;4942728;29;20027;-76
2023/06/18 06:31:59;;;;;;;11.40;6.32;;;31.40;81.50;;;;;;4936080;29;20039;-77
2023/06/18 06:34:25;;;;;;;11.57;6.70;;;31.90;81.00;;;;;;4944573;29;20032;-77
2023/06/18 06:36:51;;;;;;;13.75;6.75;;;31.80;79.90;;;;;;4956506;28;20070;-76
2023/06/18 06:39:18;;;;;;;11.32;6.10;;;31.40;80.10;;;;;;4953697;28;20072;-76
2023/06/18 06:41:44;;;;;;;11.02;6.93;;;30.90;80.60;;;;;;4952570;29;20050;-77
2023/06/18 06:44:10;;;;;;;11.68;6.13;;;30.50;81.80;;;;;;4951132;29;20071;-76
2023/06/18 06:46:35;;;;;;;18.65;9.40;;;30.20;82.20;;;;;;4952908;29;20179;-76
2023/06/18 06:49:07;;;;;;;13.80;6.78;;;29.90;82.40;;;;;;4952919;29;20038;-76
2023/06/18 06:51:33;;;;;;;12.88;7.10;;;29.40;83.00;;;;;;4953508;28;20027;-77
2023/06/18 06:53:59;;;;;;;29.75;15.93;;;28.80;83.90;;;;;;4952600;29;20027;-76
2023/06/18 06:56:25;;;;;;;19.30;9.10;;;28.40;85.00;;;;;;4952856;29;20039;-77
2023/06/18 06:58:51;;;;;;;14.00;8.50;;;28.20;84.30;;;;;;4952739;29;20015;-76
2023/06/18 07:01:19;;;;;;;16.60;7.95;;;27.60;84.70;;;;;;4954598;28;20074;-76
2023/06/18 07:03:45;;;;;;;24.40;12.02;;;27.30;85.50;;;;;;4956384;28;20035;-77
2023/06/18 07:06:13;;;;;;;18.52;8.65;;;27.00;85.30;;;;;;4951573;29;20464;-76
2023/06/18 07:08:43;;;;;;;17.02;7.28;;;26.80;85.20;;;;;;4956096;29;20023;-78
2023/06/18 07:11:09;;;;;;;15.40;8.25;;;26.80;84.70;;;;;;4957007;29;20031;-76
2023/06/18 07:13:35;;;;;;;16.23;8.27;;;26.90;84.90;;;;;;4956179;29;20030;-77
2023/06/18 07:16:00;;;;;;;15.70;6.95;;;27.00;84.80;;;;;;4956079;29;20507;-77
2023/06/18 07:18:26;;;;;;;15.82;7.80;;;27.10;84.10;;;;;;4956309;29;20065;-78
2023/06/18 07:20:52;;;;;;;18.00;8.05;;;27.10;84.00;;;;;;4956481;29;20113;-76
2023/06/18 07:23:17;;;;;;;14.98;7.72;;;27.30;84.00;;;;;;4956689;29;20034;-77
2023/06/18 07:25:43;;;;;;;16.25;8.90;;;27.30;83.60;;;;;;4956234;29;20134;-77
2023/06/18 07:28:08;;;;;;;14.77;7.93;;;27.30;83.60;;;;;;4956090;29;20542;-77
2023/06/18 07:30:34;;;;;;;12.23;7.38;;;27.40;83.50;;;;;;4955571;29;20031;-75
2023/06/18 07:33:00;;;;;;;12.95;7.93;;;27.40;83.30;;;;;;4956182;29;20019;-76
2023/06/18 07:35:25;;;;;;;17.13;8.05;;;27.50;83.30;;;;;;4956202;29;20031;-77
2023/06/18 07:37:51;;;;;;;12.77;7.82;;;27.60;83.40;;;;;;4955816;29;20460;-77
2023/06/18 07:40:17;;;;;;;13.13;7.55;;;27.70;83.60;;;;;;4955929;29;20031;-76
2023/06/18 07:42:42;;;;;;;12.95;7.22;;;27.90;83.60;;;;;;4956347;29;20066;-76
2023/06/18 07:45:08;;;;;;;12.02;7.38;;;28.20;83.00;;;;;;4953174;28;20046;-77
2023/06/18 07:47:34;;;;;;;12.63;7.65;;;28.60;82.30;;;;;;4953357;28;20113;-77
2023/06/18 07:50:01;;;;;;;12.20;7.57;;;28.90;80.80;;;;;;4952914;29;20046;-78
2023/06/18 07:52:27;;;;;;;13.25;7.03;;;29.20;81.00;;;;;;4959698;28;20102;-78
2023/06/18 07:54:52;;;;;;;13.20;6.72;;;29.50;80.60;;;;;;4955205;28;20038;-75
2023/06/18 07:57:18;;;;;;;14.23;8.07;;;29.90;80.20;;;;;;4955049;29;20038;-77
2023/06/18 07:59:47;;;;;;;12.77;7.03;;;30.20;79.50;;;;;;4937517;29;20043;-78
2023/06/18 08:02:13;;;;;;;13.65;7.57;;;30.30;78.40;;;;;;4953289;29;20071;-77
2023/06/18 08:04:39;;;;;;;13.65;8.38;;;30.30;77.60;;;;;;4938006;29;20062;-76
2023/06/18 08:07:05;;;;;;;15.32;7.88;;;30.10;76.50;;;;;;4955519;29;20497;-76
2023/06/18 08:09:31;;;;;;;13.18;7.40;;;30.00;77.30;;;;;;4955416;29;20031;-77
2023/06/18 08:11:56;;;;;;;15.25;7.85;;;30.00;77.70;;;;;;4954368;28;20027;-78
2023/06/18 08:14:22;;;;;;;11.50;7.05;;;30.20;78.10;;;;;;4957027;28;20066;-77
2023/06/18 08:16:49;;;;;;;13.98;7.70;;;30.50;77.90;;;;;;4958505;28;20035;-77
2023/06/18 08:19:14;;;;;;;15.20;7.93;;;30.80;76.90;;;;;;4955340;28;20039;-77
2023/06/18 08:21:40;;;;;;;10.18;6.90;;;31.10;76.60;;;;;;4954611;29;20090;-77
2023/06/18 08:24:06;;;;;;;12.38;7.57;;;31.50;76.80;;;;;;4948073;29;20490;-77
2023/06/18 08:26:31;;;;;;;10.77;6.80;;;32.10;75.50;;;;;;4954792;29;20098;-78
2023/06/18 08:28:58;;;;;;;13.20;7.22;;;32.90;73.80;;;;;;4954556;29;20038;-76
2023/06/18 08:31:23;;;;;;;14.25;8.68;;;33.70;73.00;;;;;;4937349;29;20043;-77
2023/06/18 08:33:50;;;;;;;10.40;6.85;;;34.50;71.60;;;;;;4954768;29;20027;-77
2023/06/18 08:36:17;;;;;;;11.82;6.88;;;35.30;70.40;;;;;;4955171;29;20039;-76
2023/06/18 08:38:43;;;;;;;13.95;8.10;;;35.90;68.80;;;;;;4954970;29;20486;-77
2023/06/18 08:41:11;;;;;;;12.82;7.90;;;36.30;67.00;;;;;;4954648;29;20027;-76
2023/06/18 08:43:37;;;;;;;11.88;7.72;;;36.60;66.80;;;;;;4953170;29;20842;-76
2023/06/18 08:46:12;;;;;;;12.40;7.15;;;36.60;66.60;;;;;;4951153;29;20122;-76
2023/06/18 08:48:49;;;;;;;11.27;7.20;;;36.60;66.50;;;;;;4953938;29;20043;-76
2023/06/18 08:51:16;;;;;;;12.30;7.88;;;36.90;65.60;;;;;;4950456;29;20035;-76
2023/06/18 08:53:45;;;;;;;14.00;7.53;;;37.20;65.20;;;;;;4945293;29;20082;-77
2023/06/18 08:56:14;;;;;;;10.82;7.75;;;37.60;64.70;;;;;;4949253;29;20159;-78
2023/06/18 08:58:49;;;;;;;12.40;8.02;;;37.80;64.20;;;;;;4938733;29;20035;-76
2023/06/18 09:01:15;;;;;;;15.40;7.75;;;37.70;64.30;;;;;;4948511;29;20383;-76
2023/06/18 09:03:42;;;;;;;12.98;8.10;;;37.60;64.20;;;;;;4947655;29;20036;-76
2023/06/18 09:06:08;;;;;;;14.32;7.95;;;37.40;63.70;;;;;;4941991;29;20046;-76
2023/06/18 09:08:34;;;;;;;10.93;7.57;;;37.00;64.10;;;;;;4951517;29;20043;-76
2023/06/18 09:11:00;;;;;;;10.93;7.20;;;36.40;64.30;;;;;;4938820;29;20490;-76
2023/06/18 09:13:26;;;;;;;13.35;7.95;;;36.00;64.90;;;;;;4947246;29;20024;-76
2023/06/18 09:15:52;;;;;;;13.85;8.18;;;35.70;65.20;;;;;;4945666;29;20215;-76
2023/06/18 09:18:21;;;;;;;13.27;7.88;;;35.50;65.70;;;;;;4954925;28;20026;-76
2023/06/18 09:20:47;;;;;;;16.17;9.63;;;35.30;65.70;;;;;;4940106;29;20055;-77
2023/06/18 09:23:13;;;;;;;24.20;15.90;;;34.90;66.80;;;;;;4953988;28;20050;-76
2023/06/18 09:25:38;;;;;;;29.70;20.55;;;34.60;66.90;;;;;;4948598;28;20934;-75
2023/06/18 09:28:04;;;;;;;17.67;12.57;;;34.50;67.50;;;;;;4946741;29;20098;-75
2023/06/18 09:30:30;;;;;;;13.00;8.57;;;34.40;67.30;;;;;;4952754;29;20023;-76
2023/06/18 09:33:00;;;;;;;12.50;7.72;;;34.10;67.50;;;;;;4950861;28;20028;-76
2023/06/18 09:35:27;;;;;;;10.80;7.70;;;33.70;67.90;;;;;;4941902;29;20030;-76
2023/06/18 09:37:53;;;;;;;30.45;27.23;;;33.40;68.10;;;;;;4953029;29;20023;-77
2023/06/18 09:40:21;;;;;;;16.70;11.15;;;33.50;68.00;;;;;;4954349;29;20027;-75
2023/06/18 09:42:49;;;;;;;20.63;15.32;;;33.70;68.00;;;;;;4941631;29;20058;-76
2023/06/18 09:45:17;;;;;;;54.63;49.10;;;34.10;67.80;;;;;;4954141;29;20042;-75
2023/06/18 09:47:47;;;;;;;31.60;22.65;;;34.50;67.50;;;;;;4953519;29;20117;-76
2023/06/18 09:50:13;;;;;;;15.13;10.15;;;34.90;67.20;;;;;;4936425;29;20023;-77
2023/06/18 09:52:48;;;;;;;12.90;7.78;;;35.40;66.70;;;;;;4952720;29;20534;-78
2023/06/18 09:55:28;;;;;;;12.50;8.20;;;35.80;65.60;;;;;;4952173;29;20045;-76
2023/06/18 09:57:54;;;;;;;10.30;7.03;;;36.20;64.60;;;;;;4952039;29;20435;-77
2023/06/18 10:00:25;;;;;;;10.60;6.80;;;36.50;63.90;;;;;;4953536;29;20039;-75
2023/06/18 10:03:04;;;;;;;11.35;6.88;;;36.70;63.70;;;;;;4952383;28;20122;-77
2023/06/18 10:05:36;;;;;;;11.70;6.65;;;37.00;63.50;;;;;;4940861;29;20126;-77
2023/06/18 10:08:10;;;;;;;9.50;6.70;;;37.30;63.10;;;;;;4936438;29;20419;-77
2023/06/18 10:10:42;;;;;;;24.05;18.35;;;37.50;63.00;;;;;;4953384;29;20031;-76
2023/06/18 10:13:11;;;;;;;12.18;7.70;;;37.70;62.80;;;;;;4953220;29;20033;-76
2023/06/18 10:15:38;;;;;;;9.60;7.38;;;37.80;62.40;;;;;;4953395;29;20065;-76
2023/06/18 10:18:06;;;;;;;9.48;6.90;;;38.00;62.30;;;;;;4953547;29;20023;-75
2023/06/18 10:20:33;;;;;;;14.18;8.38;;;38.30;61.70;;;;;;4953661;29;20472;-77
2023/06/18 10:23:02;;;;;;;13.80;10.23;;;38.50;61.40;;;;;;4938056;29;20027;-76
2023/06/18 10:25:30;;;;;;;9.45;6.35;;;38.70;61.80;;;;;;4953118;29;20066;-76
2023/06/18 10:27:56;;;;;;;8.13;6.30;;;38.70;60.80;;;;;;4953448;29;20033;-77
2023/06/18 10:30:22;;;;;;;14.65;9.18;;;38.70;60.60;;;;;;4953459;29;20104;-76
2023/06/18 10:32:48;;;;;;;10.20;6.38;;;38.50;60.60;;;;;;4954032;29;20039;-75
2023/06/18 10:35:14;;;;;;;14.20;8.65;;;38.20;60.40;;;;;;4952857;28;20050;-75
2023/06/18 10:37:43;;;;;;;13.73;7.45;;;37.80;61.70;;;;;;4957985;29;20032;-77
2023/06/18 10:40:10;;;;;;;11.10;7.05;;;37.60;61.60;;;;;;4957794;29;20036;-76
2023/06/18 10:42:49;;;;;;;9.77;6.60;;;37.30;62.10;;;;;;4954177;29;20047;-76
2023/06/18 10:45:17;;;;;;;8.30;6.25;;;37.10;62.30;;;;;;4950044;29;20047;-75
2023/06/18 10:47:43;;;;;;;9.20;5.72;;;37.00;62.30;;;;;;4957524;29;20050;-76
2023/06/18 10:50:15;;;;;;;10.57;6.90;;;36.90;62.50;;;;;;4957105;29;20063;-76
2023/06/18 10:52:48;;;;;;;11.98;7.20;;;36.70;62.40;;;;;;4957366;29;20082;-75
2023/06/18 10:55:26;;;;;;;9.70;6.95;;;36.40;62.90;;;;;;4955207;29;20039;-75
2023/06/18 10:58:04;;;;;;;10.43;6.45;;;36.00;62.90;;;;;;4957636;29;20035;-75
2023/06/18 11:00:35;;;;;;;10.60;6.40;;;35.80;63.30;;;;;;4957127;29;20035;-76
2023/06/18 11:03:01;;;;;;;10.40;6.65;;;35.60;63.70;;;;;;4956972;29;20027;-75
2023/06/18 11:05:33;;;;;;;10.38;6.60;;;35.50;63.90;;;;;;4957024;29;20043;-75
2023/06/18 11:08:06;;;;;;;9.45;6.38;;;35.40;64.10;;;;;;4957008;29;20501;-76
2023/06/18 11:10:33;;;;;;;9.15;6.00;;;35.40;64.00;;;;;;4957290;29;20126;-75
2023/06/18 11:13:01;;;;;;;9.30;5.80;;;35.50;64.20;;;;;;4957420;29;20111;-77
2023/06/18 11:15:26;;;;;;;12.30;7.30;;;35.60;63.90;;;;;;4956358;29;20035;-76
2023/06/18 11:17:55;;;;;;;11.20;7.13;;;35.60;63.60;;;;;;4956729;29;20030;-75
2023/06/18 11:20:22;;;;;;;10.18;7.07;;;35.40;64.00;;;;;;4956836;29;20118;-76
2023/06/18 11:22:56;;;;;;;10.85;6.80;;;35.30;64.40;;;;;;4956667;29;20035;-75
2023/06/18 11:25:23;;;;;;;10.57;6.72;;;35.20;64.40;;;;;;4956300;29;20129;-76
2023/06/18 11:27:49;;;;;;;9.05;5.97;;;34.90;64.10;;;;;;4956387;29;20034;-75
2023/06/18 11:30:18;;;;;;;11.45;5.68;;;34.70;64.70;;;;;;4944590;29;20635;-75
2023/06/18 11:32:44;;;;;;;8.75;6.20;;;34.60;64.90;;;;;;4937871;29;20035;-76
2023/06/18 11:35:11;;;;;;;11.07;6.10;;;34.70;64.80;;;;;;4937486;29;20039;-77
2023/06/18 11:37:42;;;;;;;10.32;6.32;;;34.80;64.60;;;;;;4949958;29;20114;-76
2023/06/18 11:40:09;;;;;;;11.07;6.88;;;34.70;64.60;;;;;;4956387;29;20027;-76
2023/06/18 11:42:37;;;;;;;13.60;8.07;;;34.80;64.80;;;;;;4954234;29;20190;-76
2023/06/18 11:45:05;;;;;;;11.55;6.55;;;34.80;65.10;;;;;;4955636;29;20191;-75
2023/06/18 11:47:34;;;;;;;7.65;6.35;;;34.80;64.80;;;;;;4956062;28;20205;-75
2023/06/18 11:50:00;;;;;;;10.95;6.18;;;34.60;64.90;;;;;;4955402;29;20391;-76
2023/06/18 11:52:27;;;;;;;10.65;5.78;;;34.30;64.90;;;;;;4956538;29;20031;-76
2023/06/18 11:54:54;;;;;;;11.00;5.93;;;34.00;65.10;;;;;;4956889;29;20027;-76
2023/06/18 11:57:21;;;;;;;10.85;5.75;;;33.70;65.40;;;;;;4956290;29;20117;-77
2023/06/18 11:59:51;;;;;;;11.70;7.22;;;33.40;66.00;;;;;;4956603;29;20141;-77
2023/06/18 12:02:23;;;;;;;16.08;8.50;;;33.20;66.40;;;;;;4955966;29;20027;-76
2023/06/18 12:04:50;;;;;;;9.60;6.35;;;33.00;66.90;;;;;;4956226;29;20031;-75
2023/06/18 12:07:20;;;;;;;8.90;6.25;;;32.90;67.30;;;;;;4952248;29;20027;-76
2023/06/18 12:09:48;;;;;;;9.43;6.83;;;32.60;67.90;;;;;;4956066;29;20095;-76
2023/06/18 12:12:26;;;;;;;8.95;6.72;;;32.50;68.30;;;;;;4955715;29;20031;-75
2023/06/18 12:15:29;;;;;;;12.85;7.18;;;32.30;69.10;;;;;;4955786;29;20468;-76
2023/06/18 12:18:18;;;;;;;18.45;10.43;;;32.00;69.60;;;;;;4936608;29;20032;-76
2023/06/18 12:20:44;;;;;;;11.98;7.57;;;31.80;70.00;;;;;;4935735;29;20551;-76
2023/06/18 12:23:11;;;;;;;13.02;6.78;;;31.70;70.10;;;;;;4954989;29;20030;-76
2023/06/18 12:25:38;;;;;;;11.98;7.63;;;31.40;70.60;;;;;;4938015;29;20043;-76
2023/06/18 12:28:04;;;;;;;11.65;7.55;;;31.30;70.70;;;;;;4952783;29;20117;-76
2023/06/18 12:30:36;;;;;;;12.82;7.50;;;31.30;71.10;;;;;;4943525;29;20046;-76
2023/06/18 12:33:02;;;;;;;;;;;31.30;71.30;;;;;;4942205;28;20028;-77
2023/06/18 12:35:30;;;;;;;11.82;7.35;;;31.30;71.60;;;;;;4936422;29;19911;-75
2023/06/18 12:38:08;;;;;;;11.85;7.90;;;31.30;71.90;;;;;;4933856;29;20084;-76